Atlantic Breeze — MDFD8 — position and weather

sailwx.info

Track history (hours):
 
Tides and Currents Weather Stations Pressure Air Temp Water Temp Dewpoint Dewpoint Depression Visibility Wind Speed Wind Dir Waves Ship Positions

Atlantic Breeze

Last reported at 2014-Aug-28 03:13 UTC. Time now 2014-Oct-30 15:21 UTC.
Position S 28°49' E 032°03'.
Warning: this ship's position is months out of date.

Length 225 m; draft 7.2 m.

Type: Cargo ship. MMSI: 235824000.

Date/timePositionNaut miles runAvg speedWind from/ knotsBaromVisibWave heightAir tempDewpointWater temp
2014-Aug-28 03:13S 28°49' E 032°03'0 0.0
2014-Aug-28 02:29S 28°49' E 032°03'0 0.0
2014-Aug-28 00:17S 28°49' E 032°03'0 0.0
2014-Aug-27 16:07S 28°49' E 032°03'0 0.0
2014-Aug-27 15:29S 28°49' E 032°03'0 0.0
2014-Aug-27 14:28S 28°49' E 032°03'0 0.0
2014-Aug-27 13:29S 28°49' E 032°03'0 0.0
2014-Aug-27 12:32S 28°49' E 032°03'0 0.0
2014-Aug-27 03:18S 28°49' E 032°03'0 0.0
2014-Aug-26 21:24S 28°49' E 032°03'5 4.6
2014-Aug-26 20:19S 28°51' E 032°08'6 1.0
2014-Aug-26 14:09S 28°57' E 032°07'0 0.0
2014-Aug-26 12:27S 28°57' E 032°07'  
2014-Aug-22 08:27S 28°57' E 032°08'  
2014-Aug-20 03:23S 28°45' E 032°46'9 9.7
2014-Aug-20 02:29S 28°43' E 032°56'9 9.5
2014-Aug-20 01:31S 28°41' E 033°06'1210.0
2014-Aug-20 00:22S 28°39' E 033°19'8110.1
2014-Aug-19 16:23S 28°23' E 034°49'8 7.1
2014-Aug-19 15:16S 28°22' E 034°58'5 7.2
2014-Aug-19 14:30S 28°21' E 035°04'  
Track history (hours):
 
Tides and Currents Weather Stations Pressure Air Temp Water Temp Dewpoint Dewpoint Depression Visibility Wind Speed Wind Dir Waves Ship Positions

Atlantic Breeze

Last reported at 2014-Aug-28 03:13 UTC. Time now 2014-Oct-30 15:21 UTC.
Position S 28°49' E 032°03'.
Warning: this ship's position is months out of date.

Length 225 m; draft 7.2 m.

Type: Cargo ship. MMSI: 235824000.

Date/timePositionNaut miles runAvg speedWind from/ knotsBaromVisibWave heightAir tempDewpointWater temp
2014-Aug-28 03:13S 28°49' E 032°03'0 0.0
2014-Aug-28 02:29S 28°49' E 032°03'0 0.0
2014-Aug-28 00:17S 28°49' E 032°03'0 0.0
2014-Aug-27 16:07S 28°49' E 032°03'0 0.0
2014-Aug-27 15:29S 28°49' E 032°03'0 0.0
2014-Aug-27 14:28S 28°49' E 032°03'0 0.0
2014-Aug-27 13:29S 28°49' E 032°03'0 0.0
2014-Aug-27 12:32S 28°49' E 032°03'0 0.0
2014-Aug-27 03:18S 28°49' E 032°03'0 0.0
2014-Aug-26 21:24S 28°49' E 032°03'5 4.6
2014-Aug-26 20:19S 28°51' E 032°08'6 1.0
2014-Aug-26 14:09S 28°57' E 032°07'0 0.0
2014-Aug-26 12:27S 28°57' E 032°07'  
2014-Aug-22 08:27S 28°57' E 032°08'  
2014-Aug-20 03:23S 28°45' E 032°46'9 9.7
2014-Aug-20 02:29S 28°43' E 032°56'9 9.5
2014-Aug-20 01:31S 28°41' E 033°06'1210.0
2014-Aug-20 00:22S 28°39' E 033°19'8110.1
2014-Aug-19 16:23S 28°23' E 034°49'8 7.1
2014-Aug-19 15:16S 28°22' E 034°58'5 7.2
2014-Aug-19 14:30S 28°21' E 035°04'  

Dump ship's entire track history